ORMM/BSR METAR and TAF weather

Enter ICAO airport designator
Station Type Date Time Source
ORMM METAR 2019/05/19 20:00 UTC NOAA

ORMM 192000Z 12012KT CAVOK 29/21 Q1007 NOSIG


Station Type Date Time Source
ORMM Decoded METAR 2019/05/19 20:00 UTC NOAA

Station name not available
May 19, 2019 - 04:00 PM EDT / 2019.05.19 2000 UTC
Wind: from the ESE (120 degrees) at 14 MPH (12 KT):0
Visibility: greater than 7 mile(s):0
Temperature: 84 F (29 C)
Dew Point: 69 F (21 C)
Relative Humidity: 62%
Pressure (altimeter): 29.74 in. Hg (1007 hPa)
ob: ORMM 192000Z 12012KT CAVOK 29/21 Q1007 NOSIG
cycle: 20

Station Type Date Time Source
ORMM TAF 2019/05/19 18:31 UTC NOAA

TAF ORMM 191700Z 1918/2018 12012KT CAVOK
BECMG 1922/2000 12006KT
TEMPO 2000/2006 5000 BR

Example: see airport list